Time;durP1;ratioP1;P1;durP2;ratioP2;P2;SDS_P1;SDS_P2;PMS_P1;PMS_P2;Temp;Humidity;BMP_temperature;BMP_pressure;BME280_temperature;BME280_humidity;BME280_pressure;Samples;Min_cycle;Max_cycle;Signal;HPM_P1;HPM_P2
2023/03/01 00:00:33;;;;;;;8.33;5.47;;;0.60;99.90;-0.40;101546;;;;577649;244;24093;-77
2023/03/01 00:03:02;;;;;;;6.83;5.17;;;0.70;99.90;-0.40;101553;;;;577642;244;24096;-73
2023/03/01 00:05:30;;;;;;;8.57;5.37;;;0.60;99.90;-0.30;101555;;;;577643;244;24052;-78
2023/03/01 00:07:58;;;;;;;9.57;5.43;;;0.70;99.90;-0.30;101555;;;;579706;244;24091;-75
2023/03/01 00:10:26;;;;;;;6.83;5.37;;;0.60;99.90;-0.30;101548;;;;577204;244;24064;-77
2023/03/01 00:12:56;;;;;;;9.83;4.80;;;0.70;99.90;-0.30;101533;;;;576999;244;24122;-77
2023/03/01 00:15:22;;;;;;;7.63;5.63;;;0.70;99.90;-0.30;101530;;;;577092;244;24073;-76
2023/03/01 00:17:50;;;;;;;9.90;5.73;;;0.70;99.90;-0.30;101521;;;;577084;244;24059;-77
2023/03/01 00:20:21;;;;;;;9.60;6.10;;;0.70;99.90;-0.30;101520;;;;577216;244;24111;-77
2023/03/01 00:22:46;;;;;;;13.85;7.47;;;0.70;99.90;-0.30;101526;;;;571987;244;35130;-78
2023/03/01 00:25:14;;;;;;;7.93;3.67;;;0.70;99.90;-0.30;101512;;;;577487;244;24104;-77
2023/03/01 00:27:42;;;;;;;7.33;3.70;;;0.70;99.90;-0.20;101513;;;;577285;244;24066;-77
2023/03/01 00:30:10;;;;;;;12.07;4.23;;;0.80;99.90;-0.20;101520;;;;577243;244;24095;-78
2023/03/01 00:32:38;;;;;;;14.13;4.80;;;0.80;99.90;-0.20;101524;;;;579428;244;24173;-77
2023/03/01 00:35:09;;;;;;;6.77;4.30;;;0.80;99.90;-0.20;101520;;;;577281;244;24075;-75
2023/03/01 00:37:33;;;;;;;10.43;5.77;;;0.80;99.90;-0.20;101515;;;;579448;244;24060;-77
2023/03/01 00:40:05;;;;;;;8.83;5.03;;;0.80;99.90;-0.20;101509;;;;577290;244;24056;-79
2023/03/01 00:42:30;;;;;;;10.27;5.85;;;0.80;99.90;-0.20;101508;;;;572044;244;35135;-76
2023/03/01 00:44:58;;;;;;;8.03;3.17;;;0.80;99.90;-0.20;101506;;;;577270;244;24102;-75
2023/03/01 00:47:26;;;;;;;6.33;3.37;;;0.80;99.90;-0.20;101498;;;;577291;244;24056;-76
2023/03/01 00:49:54;;;;;;;6.57;2.47;;;0.90;99.90;-0.10;101498;;;;579160;244;24059;-78
2023/03/01 00:52:22;;;;;;;5.13;3.30;;;0.90;99.90;-0.10;101500;;;;577008;244;24068;-76
2023/03/01 00:54:50;;;;;;;7.67;4.13;;;0.90;99.90;-0.10;101490;;;;576889;244;24124;-77
2023/03/01 00:57:18;;;;;;;10.23;5.60;;;0.90;99.90;-0.10;101504;;;;588027;243;24087;-78
2023/03/01 00:59:46;;;;;;;10.67;5.50;;;0.90;99.90;-0.10;101506;;;;576874;244;24064;-79
2023/03/01 01:02:14;;;;;;;7.93;4.97;;;0.90;99.90;-0.10;101512;;;;577870;243;24047;-78
2023/03/01 01:04:42;;;;;;;14.67;6.70;;;0.90;99.90;-0.10;101508;;;;578145;243;24232;-78
2023/03/01 01:07:10;;;;;;;9.00;5.73;;;0.90;99.90;-0.10;101506;;;;577957;243;24079;-78
2023/03/01 01:09:39;;;;;;;8.57;6.07;;;0.90;99.90;-0.10;101518;;;;577760;243;24113;-78
2023/03/01 01:12:10;;;;;;;13.43;7.10;;;0.90;99.90;-0.10;101521;;;;577377;244;24078;-78
2023/03/01 01:14:35;;;;;;;9.63;5.90;;;0.90;99.90;-0.10;101516;;;;579361;244;24078;-78
2023/03/01 01:17:03;;;;;;;14.33;6.97;;;0.90;99.90;-0.10;101514;;;;579602;244;24079;-77
2023/03/01 01:19:31;;;;;;;9.50;5.57;;;0.90;99.90;0.00;101505;;;;579782;244;24071;-76
2023/03/01 01:21:59;;;;;;;10.87;6.03;;;0.90;99.90;-0.10;101504;;;;579458;244;24068;-78
2023/03/01 01:24:27;;;;;;;8.97;5.73;;;0.90;99.90;-0.10;101503;;;;577125;244;24045;-74
2023/03/01 01:26:55;;;;;;;7.43;5.50;;;0.90;99.90;-0.10;101499;;;;577564;244;24090;-76
2023/03/01 01:29:23;;;;;;;8.93;6.33;;;0.90;99.90;-0.10;101500;;;;577602;244;24126;-78
2023/03/01 01:31:50;;;;;;;9.77;5.53;;;0.90;99.90;-0.10;101508;;;;577532;244;24070;-77
2023/03/01 01:34:18;;;;;;;8.47;5.70;;;0.90;99.90;-0.10;101499;;;;577600;244;24076;-77
2023/03/01 01:36:53;;;;;;;10.23;5.53;;;0.90;99.90;-0.10;101498;;;;588760;242;24058;-78
2023/03/01 01:39:18;;;;;;;11.90;7.07;;;0.90;99.90;-0.10;101502;;;;577035;244;24064;-76
2023/03/01 01:41:46;;;;;;;10.13;6.00;;;0.90;99.90;-0.10;101492;;;;577348;244;24098;-76
2023/03/01 01:44:20;;;;;;;14.00;7.20;;;0.80;99.90;-0.10;101479;;;;577266;244;24068;-76
2023/03/01 01:46:57;;;;;;;14.30;7.70;;;0.90;99.90;-0.10;101468;;;;579342;244;24078;-75
2023/03/01 01:49:43;;;;;;;14.13;7.77;;;0.90;99.90;-0.20;101473;;;;579412;244;24105;-77
2023/03/01 01:52:14;;;;;;;13.73;6.90;;;0.80;99.90;-0.20;101477;;;;578944;244;24131;-73
2023/03/01 01:54:45;;;;;;;11.70;6.47;;;0.80;99.90;-0.20;101478;;;;579080;244;24071;-74
2023/03/01 01:57:13;;;;;;;14.47;7.77;;;0.80;99.90;-0.20;101467;;;;587940;244;24063;-76
2023/03/01 01:59:41;;;;;;;13.40;8.60;;;0.80;99.90;-0.20;101462;;;;587921;243;24088;-75
2023/03/01 02:02:12;;;;;;;12.20;6.73;;;0.80;99.90;-0.20;101462;;;;587942;243;26276;-74
2023/03/01 02:04:37;;;;;;;14.43;8.33;;;0.80;99.90;-0.20;101463;;;;576701;244;24116;-75
2023/03/01 02:07:14;;;;;;;14.27;8.07;;;0.80;99.90;-0.20;101476;;;;577035;244;24067;-77
2023/03/01 02:09:45;;;;;;;16.20;8.73;;;0.80;99.90;-0.30;101448;;;;579170;244;24052;-77
2023/03/01 02:12:13;;;;;;;11.60;7.70;;;0.70;99.90;-0.30;101460;;;;576851;244;24069;-73
2023/03/01 02:14:42;;;;;;;13.23;7.77;;;0.70;99.90;-0.30;101459;;;;578218;243;24129;-79
2023/03/01 02:17:10;;;;;;;12.07;8.40;;;0.70;99.90;-0.30;101457;;;;578150;243;24123;-78
2023/03/01 02:19:59;;;;;;;16.60;9.13;;;0.70;99.90;-0.30;101455;;;;580077;243;24098;-76
2023/03/01 02:22:28;;;;;;;17.17;9.27;;;0.70;99.90;-0.40;101454;;;;577449;244;24135;-76
2023/03/01 02:25:19;;;;;;;17.70;9.17;;;0.70;99.90;-0.40;101448;;;;588559;244;24078;-74
2023/03/01 02:28:18;;;;;;;17.73;9.77;;;0.70;99.90;-0.40;101457;;;;580075;244;24100;-76
2023/03/01 02:33:35;;;;;;;17.47;11.37;;;0.60;99.90;-0.40;101460;;;;579720;244;24104;-77
2023/03/01 02:35:58;;;;;;;20.73;11.17;;;0.60;99.90;-0.40;101453;;;;579488;244;24156;-77
2023/03/01 02:38:26;;;;;;;19.23;10.40;;;0.60;99.90;-0.40;101453;;;;588412;244;24091;-77
2023/03/01 02:40:57;;;;;;;16.33;10.30;;;0.60;99.90;-0.40;101449;;;;561383;251;24137;-78
2023/03/01 02:43:22;;;;;;;24.43;10.97;;;0.60;99.90;-0.40;101433;;;;572388;246;24159;-76
2023/03/01 02:45:52;;;;;;;18.77;11.77;;;0.60;99.90;-0.40;101445;;;;570807;251;24135;-77
2023/03/01 02:48:19;;;;;;;15.33;10.50;;;0.60;99.90;-0.40;101447;;;;572477;246;24105;-76
2023/03/01 02:51:06;;;;;;;18.13;9.63;;;0.60;99.90;-0.30;101449;;;;573948;246;24061;-77
2023/03/01 02:53:42;;;;;;;23.40;12.40;;;0.70;99.90;-0.40;101437;;;;569277;250;24120;-77
2023/03/01 02:56:12;;;;;;;19.33;10.90;;;0.60;99.90;-0.30;101436;;;;571279;246;24110;-75
2023/03/01 02:58:44;;;;;;;17.43;10.27;;;0.70;99.90;-0.30;101440;;;;573254;246;24066;-76
2023/03/01 03:01:03;;;;;;;27.03;13.13;;;0.70;99.90;-0.30;101428;;;;571295;246;24183;-77
2023/03/01 03:03:31;;;;;;;20.07;11.77;;;0.70;99.90;-0.30;101428;;;;582424;246;23994;-75
2023/03/01 03:05:59;;;;;;;23.83;12.90;;;0.70;99.90;-0.30;101429;;;;578008;246;24087;-73
2023/03/01 03:08:27;;;;;;;17.60;10.67;;;0.70;99.90;-0.30;101420;;;;582142;246;24013;-74
2023/03/01 03:10:55;;;;;;;24.80;12.80;;;0.70;99.90;-0.30;101428;;;;571904;246;24134;-74
2023/03/01 03:13:28;;;;;;;21.17;12.07;;;0.60;99.90;-0.30;101424;;;;582167;246;24060;-77
2023/03/01 03:15:51;;;;;;;30.37;14.70;;;0.60;99.90;-0.40;101417;;;;571740;246;24084;-76
2023/03/01 03:18:20;;;;;;;26.33;13.60;;;0.60;99.90;-0.40;101419;;;;582358;246;24000;-77
2023/03/01 03:20:52;;;;;;;23.03;12.40;;;0.60;99.90;-0.40;101420;;;;571780;246;24163;-77
2023/03/01 03:23:18;;;;;;;29.43;15.00;;;0.60;99.90;-0.40;101412;;;;582299;246;23987;-74
2023/03/01 03:25:44;;;;;;;25.87;14.07;;;0.60;99.90;-0.40;101421;;;;562458;250;24157;-76
2023/03/01 03:28:13;;;;;;;22.83;13.30;;;0.60;99.90;-0.40;101420;;;;570610;246;24093;-77
2023/03/01 03:30:41;;;;;;;27.07;14.70;;;0.60;99.90;-0.40;101414;;;;583385;246;25036;-76
2023/03/01 03:33:09;;;;;;;41.60;20.73;;;0.60;99.90;-0.40;101411;;;;568044;246;46343;-75
2023/03/01 03:35:40;;;;;;;20.80;8.57;;;0.60;99.90;-0.40;101407;;;;562457;251;24118;-75
2023/03/01 03:38:15;;;;;;;21.33;8.30;;;0.60;99.90;-0.40;101402;;;;572257;246;24127;-77
2023/03/01 03:40:44;;;;;;;13.03;7.17;;;0.60;99.90;-0.40;101394;;;;562173;251;24281;-78
2023/03/01 03:43:16;;;;;;;19.83;11.40;;;0.60;99.90;-0.40;101395;;;;562378;251;24119;-78
2023/03/01 03:45:45;;;;;;;26.53;14.17;;;0.60;99.90;-0.40;101392;;;;570985;249;24162;-78
2023/03/01 03:48:13;;;;;;;33.67;16.07;;;0.60;99.90;-0.40;101385;;;;572547;246;24147;-77
2023/03/01 03:50:42;;;;;;;25.97;14.17;;;0.60;99.90;-0.40;101394;;;;572519;246;24088;-77
2023/03/01 03:53:10;;;;;;;34.07;14.97;;;0.50;99.90;-0.40;101391;;;;574180;246;24016;-76
2023/03/01 03:55:41;;;;;;;27.33;14.33;;;0.60;99.90;-0.50;101384;;;;572336;246;24096;-77
2023/03/01 03:58:10;;;;;;;29.50;15.37;;;0.50;99.90;-0.50;101389;;;;573850;246;24005;-76
2023/03/01 04:00:39;;;;;;;24.30;13.67;;;0.50;99.90;-0.50;101379;;;;571994;246;24095;-74
2023/03/01 04:03:08;;;;;;;30.17;15.57;;;0.50;99.90;-0.50;101379;;;;570226;251;24156;-75
2023/03/01 04:05:38;;;;;;;31.57;15.57;;;0.50;99.90;-0.50;101385;;;;571638;246;24108;-73
2023/03/01 04:08:06;;;;;;;29.07;13.80;;;0.50;99.90;-0.50;101371;;;;570072;251;24139;-75
2023/03/01 04:10:31;;;;;;;30.43;14.57;;;0.50;99.90;-0.50;101376;;;;576484;246;24097;-75
2023/03/01 04:12:59;;;;;;;28.60;15.87;;;0.50;99.90;-0.50;101375;;;;570359;251;24122;-76
2023/03/01 04:15:27;;;;;;;27.90;15.33;;;0.50;99.90;-0.50;101367;;;;569419;246;24083;-78
2023/03/01 04:17:55;;;;;;;29.77;14.27;;;0.50;99.90;-0.50;101377;;;;573527;246;23998;-78
2023/03/01 04:20:26;;;;;;;21.53;10.80;;;0.50;99.90;-0.60;101377;;;;571956;246;24090;-78
2023/03/01 04:23:37;;;;;;;26.73;15.30;;;0.40;99.90;-0.60;101375;;;;569905;251;24210;-78
2023/03/01 04:25:39;;;;;;;32.70;16.13;;;0.40;99.90;-0.60;101373;;;;570286;246;24185;-75
2023/03/01 04:28:07;;;;;;;27.00;14.80;;;0.40;99.90;-0.60;101369;;;;568728;249;24076;-76
2023/03/01 04:30:38;;;;;;;27.77;15.10;;;0.40;99.90;-0.60;101366;;;;572159;246;24120;-75
2023/03/01 04:33:03;;;;;;;27.57;15.57;;;0.40;99.90;-0.70;101368;;;;560696;251;24182;-76
2023/03/01 04:35:31;;;;;;;25.80;14.73;;;0.30;99.90;-0.70;101366;;;;580777;243;24170;-73
2023/03/01 04:37:59;;;;;;;29.03;14.70;;;0.30;99.90;-0.70;101366;;;;575137;245;23993;-78
2023/03/01 04:40:26;;;;;;;41.58;20.85;;;0.30;99.90;-0.70;101358;;;;574484;246;35305;-78
2023/03/01 04:42:54;;;;;;;10.53;5.80;;;0.30;99.90;-0.70;101361;;;;583489;246;24009;-79
2023/03/01 04:45:22;;;;;;;16.03;8.00;;;0.30;99.90;-0.70;101366;;;;573094;246;24132;-77
2023/03/01 04:47:52;;;;;;;22.73;9.50;;;0.30;99.90;-0.70;101372;;;;583223;246;23988;-76
2023/03/01 04:50:23;;;;;;;18.60;7.53;;;0.30;99.90;-0.70;101376;;;;572785;246;24148;-77
2023/03/01 04:52:48;;;;;;;25.60;12.30;;;0.30;99.90;-0.70;101373;;;;574204;246;24061;-77
2023/03/01 04:55:15;;;;;;;26.27;13.87;;;0.30;99.90;-0.70;101369;;;;572612;246;24089;-79
2023/03/01 04:57:43;;;;;;;33.27;16.43;;;0.30;99.90;-0.70;101367;;;;570457;251;24198;-78
2023/03/01 05:00:20;;;;;;;33.03;16.47;;;0.30;99.90;-0.70;101372;;;;562362;251;24164;-77
2023/03/01 05:02:48;;;;;;;35.47;18.60;;;0.30;99.90;-0.80;101371;;;;580482;246;24095;-75
2023/03/01 05:05:16;;;;;;;37.83;17.97;;;0.30;99.90;-0.80;101357;;;;561832;251;24113;-80
2023/03/01 05:07:44;;;;;;;38.53;15.52;;;0.20;99.90;-0.70;101364;;;;566315;246;35374;-79
2023/03/01 05:10:12;;;;;;;16.00;8.57;;;0.30;99.90;-0.80;101367;;;;582928;246;25009;-75
2023/03/01 05:12:40;;;;;;;31.27;9.60;;;0.30;99.90;-0.70;101367;;;;572369;246;24076;-78
2023/03/01 05:15:08;;;;;;;30.07;9.57;;;0.30;99.90;-0.80;101367;;;;582622;246;24028;-77
2023/03/01 05:17:38;;;;;;;21.27;9.67;;;0.30;99.90;-0.70;101360;;;;569935;246;24108;-77
2023/03/01 05:20:08;;;;;;;34.00;15.03;;;0.30;99.90;-0.80;101361;;;;574085;246;24005;-78
2023/03/01 05:22:31;;;;;;;31.57;14.93;;;0.30;99.90;-0.80;101371;;;;559937;251;24149;-76
2023/03/01 05:24:59;;;;;;;43.00;18.70;;;0.30;99.90;-0.70;101369;;;;571065;246;24076;-76
2023/03/01 05:27:27;;;;;;;39.17;18.23;;;0.30;99.90;-0.70;101368;;;;582730;246;23988;-76
2023/03/01 05:29:55;;;;;;;35.73;16.37;;;0.30;99.90;-0.70;101366;;;;572288;246;24112;-76
2023/03/01 05:32:23;;;;;;;36.13;16.60;;;0.30;99.90;-0.70;101361;;;;573434;246;24015;-75
2023/03/01 05:34:52;;;;;;;36.70;18.17;;;0.30;99.90;-0.70;101366;;;;578064;246;24085;-74
2023/03/01 05:37:20;;;;;;;36.40;18.90;;;0.30;99.90;-0.70;101351;;;;582271;246;24030;-75
2023/03/01 05:39:50;;;;;;;38.77;17.27;;;0.30;99.90;-0.70;101361;;;;571862;246;24145;-75
2023/03/01 05:42:18;;;;;;;37.33;17.77;;;0.30;99.90;-0.70;101357;;;;582119;246;25032;-77
2023/03/01 05:44:46;;;;;;;33.83;16.47;;;0.30;99.90;-0.70;101357;;;;578369;246;24103;-76
2023/03/01 05:47:14;;;;;;;32.73;17.83;;;0.30;99.90;-0.70;101363;;;;582337;246;24037;-77
2023/03/01 05:49:41;;;;;;;36.67;16.73;;;0.30;99.90;-0.70;101357;;;;579456;246;24098;-76
2023/03/01 05:52:09;;;;;;;36.17;16.17;;;0.40;99.90;-0.60;101360;;;;583470;245;24001;-78
2023/03/01 05:54:38;;;;;;;34.30;16.27;;;0.30;99.90;-0.60;101358;;;;572700;246;24080;-79
2023/03/01 05:57:05;;;;;;;36.27;14.53;;;0.40;99.90;-0.60;101347;;;;571861;246;24045;-76
2023/03/01 05:59:33;;;;;;;32.87;14.57;;;0.40;99.90;-0.60;101355;;;;572360;246;24072;-78
2023/03/01 06:02:01;;;;;;;35.43;17.60;;;0.40;99.90;-0.50;101345;;;;582787;246;24116;-76
2023/03/01 06:04:29;;;;;;;34.60;16.33;;;0.50;99.90;-0.50;101346;;;;578566;246;24106;-75
2023/03/01 06:06:57;;;;;;;40.50;16.63;;;0.50;99.90;-0.40;101366;;;;582697;246;24071;-78
2023/03/01 06:09:25;;;;;;;42.87;16.67;;;0.60;99.90;-0.40;101369;;;;572223;246;24084;-78
2023/03/01 06:11:53;;;;;;;28.67;12.73;;;0.60;99.90;-0.30;101373;;;;582418;246;23981;-78
2023/03/01 06:14:21;;;;;;;30.97;14.97;;;0.70;99.90;-0.20;101366;;;;578464;246;24077;-74
2023/03/01 06:16:49;;;;;;;23.93;9.40;;;0.70;99.90;-0.20;101368;;;;582575;246;24040;-78
2023/03/01 06:19:16;;;;;;;19.17;7.73;;;0.80;99.90;-0.10;101379;;;;572077;246;24181;-76
2023/03/01 06:21:44;;;;;;;14.17;6.13;;;0.90;99.90;0.00;101367;;;;582697;246;24023;-77
2023/03/01 06:24:12;;;;;;;13.73;6.57;;;1.00;99.90;0.00;101367;;;;580791;246;24082;-74
2023/03/01 06:26:40;;;;;;;22.17;6.80;;;1.00;99.90;0.10;101377;;;;588107;244;24059;-78
2023/03/01 06:29:08;;;;;;;12.27;5.90;;;1.10;99.90;0.20;101381;;;;575997;244;24074;-78
2023/03/01 06:31:36;;;;;;;16.63;7.27;;;1.20;99.90;0.40;101378;;;;575896;244;24111;-74
2023/03/01 06:34:05;;;;;;;18.10;8.00;;;1.40;99.90;0.50;101384;;;;576347;244;24090;-75
2023/03/01 06:36:33;;;;;;;9.87;5.37;;;1.40;99.90;0.70;101387;;;;576407;244;24075;-76
2023/03/01 06:39:00;;;;;;;16.87;7.57;;;1.60;99.90;0.90;101387;;;;579436;244;24061;-73
2023/03/01 06:41:28;;;;;;;22.60;7.27;;;1.80;99.90;1.10;101388;;;;576393;244;25086;-78
2023/03/01 06:43:57;;;;;;;13.07;6.87;;;2.10;99.90;1.30;101396;;;;576341;244;24123;-74
2023/03/01 06:46:25;;;;;;;12.10;4.60;;;2.10;99.90;1.40;101403;;;;576317;244;24106;-80
2023/03/01 06:48:53;;;;;;;10.73;4.57;;;2.30;99.90;1.50;101402;;;;576389;244;24070;-79
2023/03/01 06:51:21;;;;;;;13.20;5.00;;;2.40;99.90;1.60;101401;;;;576338;244;24058;-77
2023/03/01 06:53:49;;;;;;;18.97;8.00;;;2.60;99.90;1.70;101398;;;;576297;244;24149;-78
2023/03/01 06:56:17;;;;;;;12.70;5.80;;;2.60;99.90;1.80;101406;;;;576381;244;24166;-78
2023/03/01 06:58:45;;;;;;;14.90;6.60;;;2.70;99.90;2.00;101405;;;;579161;244;24060;-77
2023/03/01 07:01:13;;;;;;;16.80;5.73;;;2.90;99.90;2.10;101417;;;;577805;243;24074;-79
2023/03/01 07:03:44;;;;;;;10.03;3.90;;;3.00;99.90;2.10;101404;;;;577391;243;24043;-75
2023/03/01 07:06:09;;;;;;;11.80;6.30;;;3.00;99.90;2.30;101406;;;;577011;243;24069;-78
2023/03/01 07:08:37;;;;;;;12.23;5.80;;;3.20;99.90;2.60;101408;;;;577075;244;24067;-77
2023/03/01 07:11:05;;;;;;;10.13;5.80;;;3.40;99.90;3.10;101407;;;;576910;244;24053;-77
2023/03/01 07:13:33;;;;;;;8.20;4.83;;;3.80;99.90;4.00;101403;;;;580027;243;24134;-75
2023/03/01 07:16:01;;;;;;;12.90;6.63;;;4.50;99.90;4.80;101412;;;;576861;244;24073;-77
2023/03/01 07:18:29;;;;;;;12.43;6.63;;;5.30;99.90;5.80;101406;;;;588723;243;24096;-73
2023/03/01 07:20:56;;;;;;;7.97;5.70;;;6.30;99.90;6.50;101414;;;;576581;244;24191;-74
2023/03/01 07:23:24;;;;;;;14.90;8.23;;;7.00;99.90;7.50;101422;;;;576580;244;24059;-74
2023/03/01 07:25:53;;;;;;;11.50;7.00;;;8.70;99.90;8.30;101426;;;;576630;244;24185;-74
2023/03/01 07:28:21;;;;;;;12.07;6.10;;;8.70;99.90;9.10;101423;;;;579764;244;24121;-74
2023/03/01 07:30:49;;;;;;;9.67;6.17;;;9.50;99.90;9.40;101429;;;;576515;244;24094;-73
2023/03/01 07:33:17;;;;;;;12.67;7.57;;;10.00;99.90;9.60;101416;;;;576640;244;24127;-73
2023/03/01 07:35:45;;;;;;;11.17;7.10;;;10.10;99.90;10.00;101428;;;;579184;244;24061;-73
2023/03/01 07:38:13;;;;;;;10.87;7.60;;;10.60;99.90;10.60;101431;;;;579427;244;24067;-74
2023/03/01 07:40:40;;;;;;;10.83;5.97;;;11.00;99.90;11.00;101435;;;;579496;244;24061;-75
2023/03/01 07:43:08;;;;;;;11.13;7.00;;;11.50;99.90;11.40;101432;;;;579450;244;24103;-75
2023/03/01 07:45:40;;;;;;;10.23;7.63;;;11.90;99.90;12.40;101439;;;;579318;244;24100;-77
2023/03/01 07:48:04;;;;;;;10.47;7.20;;;12.70;99.90;13.30;101444;;;;579098;244;24047;-74
2023/03/01 07:50:32;;;;;;;13.87;8.27;;;13.60;99.90;14.20;101450;;;;579465;244;24073;-73
2023/03/01 07:53:00;;;;;;;10.80;7.90;;;14.50;99.00;15.20;101446;;;;579503;244;24041;-73
2023/03/01 07:55:31;;;;;;;11.20;7.33;;;15.40;95.70;16.00;101450;;;;579510;244;24058;-74
2023/03/01 07:57:56;;;;;;;10.87;8.03;;;16.40;91.60;16.40;101443;;;;576708;244;24061;-75
2023/03/01 08:00:24;;;;;;;11.43;7.93;;;17.00;87.80;16.50;101443;;;;578965;244;24107;-74
2023/03/01 08:02:52;;;;;;;13.73;8.37;;;17.10;83.00;16.60;101443;;;;579027;244;24113;-74
2023/03/01 08:05:21;;;;;;;12.20;8.77;;;17.30;79.40;16.50;101437;;;;579014;244;24220;-76
2023/03/01 08:07:50;;;;;;;13.02;10.38;;;17.20;78.00;17.00;101433;;;;574063;244;35159;-74
2023/03/01 08:10:15;;;;;;;13.33;9.10;;;17.60;77.10;17.40;101439;;;;578932;244;24122;-75
2023/03/01 08:12:43;;;;;;;12.93;9.00;;;17.90;74.80;17.70;101437;;;;580428;243;24102;-75
2023/03/01 08:15:11;;;;;;;11.80;9.30;;;18.30;72.90;18.00;101434;;;;580179;243;24087;-74
2023/03/01 08:17:39;;;;;;;11.23;8.67;;;18.60;70.80;18.60;101432;;;;579830;243;23102;-73
2023/03/01 08:20:07;;;;;;;12.03;8.50;;;19.10;68.60;18.50;101433;;;;579966;244;23069;-75
2023/03/01 08:22:35;;;;;;;11.40;8.43;;;19.20;66.60;18.40;101439;;;;579607;244;26285;-74
2023/03/01 08:25:04;;;;;;;11.73;8.93;;;19.30;65.70;18.80;101438;;;;580001;244;23163;-76
2023/03/01 08:27:33;;;;;;;12.20;9.13;;;19.80;64.30;19.30;101447;;;;579691;244;24126;-75
2023/03/01 08:30:01;;;;;;;9.70;8.27;;;20.60;62.50;20.00;101446;;;;579428;244;23074;-76
2023/03/01 08:32:29;;;;;;;11.87;9.03;;;20.50;62.50;20.60;101456;;;;579440;244;24069;-77
2023/03/01 08:34:57;;;;;;;13.20;9.47;;;21.10;59.90;20.70;101461;;;;579372;244;24052;-77
2023/03/01 08:37:25;;;;;;;13.73;10.17;;;21.30;58.70;20.80;101464;;;;579719;244;24033;-77
2023/03/01 08:39:54;;;;;;;12.07;9.73;;;21.50;58.30;20.90;101480;;;;577497;244;24087;-75
2023/03/01 08:42:21;;;;;;;12.37;9.37;;;21.60;57.30;20.80;101466;;;;579655;244;24160;-74
2023/03/01 08:44:49;;;;;;;10.73;9.37;;;21.50;56.80;20.70;101469;;;;579757;244;24081;-73
2023/03/01 08:47:17;;;;;;;11.80;10.07;;;21.40;56.90;20.90;101457;;;;579600;244;24077;-74
2023/03/01 08:49:45;;;;;;;10.03;8.67;;;21.60;56.70;21.50;101461;;;;579461;244;24091;-75
2023/03/01 08:52:12;;;;;;;11.80;9.27;;;22.10;56.20;22.30;101464;;;;579454;244;24090;-74
2023/03/01 08:54:40;;;;;;;10.77;9.03;;;23.00;54.60;22.80;101464;;;;579539;244;24073;-73
2023/03/01 08:57:09;;;;;;;11.00;8.97;;;23.50;53.10;22.60;101456;;;;579496;244;24037;-74
2023/03/01 08:59:37;;;;;;;9.40;8.40;;;23.40;52.20;22.10;101463;;;;579059;244;24071;-75
2023/03/01 09:02:07;;;;;;;9.80;8.33;;;23.10;52.30;22.00;101462;;;;579075;244;23068;-74
2023/03/01 09:04:33;;;;;;;12.63;9.53;;;22.90;53.00;22.20;101465;;;;578925;244;23126;-77
2023/03/01 09:07:01;;;;;;;9.90;8.90;;;23.00;52.20;22.20;101471;;;;579176;244;23125;-76
2023/03/01 09:09:29;;;;;;;10.47;9.40;;;23.00;52.20;22.80;101469;;;;579128;244;23101;-76
2023/03/01 09:11:57;;;;;;;12.93;9.73;;;23.70;51.90;23.80;101472;;;;579035;244;23105;-78
2023/03/01 09:14:24;;;;;;;10.47;9.50;;;24.60;50.70;24.20;101480;;;;579181;244;23069;-74
2023/03/01 09:16:52;;;;;;;11.13;9.37;;;25.30;49.80;25.00;101482;;;;579151;244;23083;-76
2023/03/01 09:19:20;;;;;;;10.97;9.30;;;26.10;48.10;24.60;101478;;;;579305;244;23126;-73
2023/03/01 09:21:55;;;;;;;12.67;10.37;;;25.90;47.50;24.60;101488;;;;579191;244;24113;-74
2023/03/01 09:24:22;;;;;;;12.47;10.10;;;25.90;47.70;24.80;101488;;;;580743;243;23095;-79
2023/03/01 09:26:50;;;;;;;12.10;9.33;;;26.00;47.20;24.70;101488;;;;578176;243;23115;-73
2023/03/01 09:29:18;;;;;;;11.93;10.37;;;26.00;46.80;24.40;101489;;;;578086;243;24073;-74
2023/03/01 09:31:46;;;;;;;11.93;10.13;;;25.80;47.20;23.50;101483;;;;580478;244;23084;-76
2023/03/01 09:34:15;;;;;;;13.93;10.70;;;25.10;47.20;23.20;101494;;;;580290;244;24116;-73
2023/03/01 09:36:42;;;;;;;12.20;10.43;;;24.60;47.70;21.80;101484;;;;580405;244;23091;-73
2023/03/01 09:39:10;;;;;;;13.10;10.90;;;23.50;48.30;19.40;101486;;;;580633;244;23082;-73
2023/03/01 09:41:52;;;;;;;12.13;10.10;;;21.70;50.80;17.60;101485;;;;580422;244;24059;-73
2023/03/01 09:44:57;;;;;;;11.17;9.33;;;19.80;53.80;16.40;101485;;;;580339;244;23066;-73
2023/03/01 09:47:25;;;;;;;10.90;9.37;;;16.80;59.70;15.10;101470;;;;577788;244;24124;-76
2023/03/01 09:50:16;;;;;;;13.90;11.18;;;15.70;62.90;14.20;101469;;;;572658;244;35214;-74
2023/03/01 09:52:54;;;;;;;13.03;9.20;;;15.70;62.90;13.40;101464;;;;579893;244;24100;-75
2023/03/01 09:55:31;;;;;;;10.83;7.67;;;14.90;65.50;12.80;101472;;;;579767;244;24057;-73
2023/03/01 09:58:30;;;;;;;13.40;8.60;;;14.20;67.60;12.00;101467;;;;579721;244;24071;-73
2023/03/01 10:01:04;;;;;;;10.97;7.50;;;12.80;72.80;11.50;101475;;;;576709;244;24052;-74
2023/03/01 10:03:40;;;;;;;14.60;7.03;;;12.80;72.80;11.40;101476;;;;578770;244;24104;-78
2023/03/01 10:06:23;;;;;;;11.20;7.83;;;12.70;74.30;11.90;101477;;;;578786;244;24194;-78
2023/03/01 10:08:56;;;;;;;11.73;7.83;;;13.00;74.80;12.60;101478;;;;576976;244;24120;-76
2023/03/01 10:11:36;;;;;;;9.53;8.13;;;13.70;73.60;13.10;101475;;;;576454;244;24144;-76
2023/03/01 10:14:10;;;;;;;11.30;8.20;;;14.20;72.80;13.90;101482;;;;579062;244;24086;-75
2023/03/01 10:16:44;;;;;;;14.10;9.57;;;14.90;71.30;14.50;101486;;;;576672;244;24087;-74
2023/03/01 10:19:15;;;;;;;13.13;8.97;;;15.70;69.30;14.80;101490;;;;578862;244;24111;-76
2023/03/01 10:21:43;;;;;;;12.20;9.23;;;16.10;67.60;15.20;101484;;;;576671;244;24072;-77
2023/03/01 10:24:18;;;;;;;11.43;8.67;;;16.50;66.50;15.40;101485;;;;576852;244;24062;-78
2023/03/01 10:27:00;;;;;;;11.63;8.87;;;16.80;66.60;15.30;101480;;;;576897;244;24074;-78
2023/03/01 10:29:25;;;;;;;12.77;9.33;;;16.90;65.10;15.40;101478;;;;576488;244;24077;-79
2023/03/01 10:31:53;;;;;;;11.13;8.87;;;17.00;65.20;15.30;101480;;;;576561;244;24112;-76
2023/03/01 10:34:27;;;;;;;12.90;9.27;;;16.90;65.00;15.00;101474;;;;579581;243;24151;-75
2023/03/01 10:37:02;;;;;;;14.23;9.30;;;16.40;66.10;14.80;101474;;;;580180;243;24136;-72
2023/03/01 10:39:30;;;;;;;11.70;9.60;;;15.90;66.50;14.00;101468;;;;580062;243;24119;-75
2023/03/01 10:42:02;;;;;;;13.53;9.67;;;14.90;68.30;13.00;101474;;;;578089;243;24046;-76
2023/03/01 10:44:39;;;;;;;11.77;8.73;;;14.90;68.30;12.00;101471;;;;577146;244;24090;-78
2023/03/01 10:47:07;;;;;;;12.57;8.37;;;13.90;71.10;10.90;101472;;;;577754;244;24060;-74
2023/03/01 10:49:35;;;;;;;11.90;8.10;;;12.60;74.30;10.00;101461;;;;576382;244;24102;-76
2023/03/01 10:52:03;;;;;;;10.03;7.20;;;11.50;78.30;9.40;101467;;;;577744;244;24107;-74
2023/03/01 10:54:34;;;;;;;12.10;7.60;;;10.70;81.00;8.90;101453;;;;575518;244;24051;-76
2023/03/01 10:57:01;;;;;;;15.27;8.67;;;10.00;84.50;8.30;101452;;;;575763;244;24170;-73
2023/03/01 10:59:29;;;;;;;11.93;7.17;;;9.40;89.30;7.80;101446;;;;580256;244;24075;-76
2023/03/01 11:02:16;;;;;;;11.53;7.07;;;8.80;91.90;7.30;101453;;;;579317;244;24058;-75
2023/03/01 11:05:02;;;;;;;13.33;6.70;;;8.30;95.00;6.80;101448;;;;588356;243;24095;-79
2023/03/01 11:07:31;;;;;;;13.60;7.17;;;7.30;99.90;6.40;101451;;;;579475;244;24097;-77
2023/03/01 11:09:59;;;;;;;12.60;6.67;;;7.20;99.90;6.20;101451;;;;579342;244;24072;-74
2023/03/01 11:12:29;;;;;;;13.80;7.57;;;7.00;99.90;6.00;101450;;;;575976;244;24064;-78
2023/03/01 11:14:55;;;;;;;9.57;6.03;;;6.80;99.90;5.80;101447;;;;575900;244;24078;-77
2023/03/01 11:17:25;;;;;;;12.60;6.93;;;6.60;99.90;5.60;101452;;;;579048;244;24102;-74
2023/03/01 11:20:13;;;;;;;12.47;6.47;;;6.20;99.90;5.50;101442;;;;579066;244;24066;-74